createdAt,value
2023-07-01T00:00:11.584Z,45.39
2023-07-01T00:02:49.901Z,45.39
2023-07-01T00:05:19.525Z,45.15
2023-07-01T00:07:47.619Z,45.61
2023-07-01T00:10:15.763Z,45.19
2023-07-01T00:12:43.795Z,45.24
2023-07-01T00:15:11.856Z,45.03
2023-07-01T00:17:39.952Z,44.66
2023-07-01T00:20:08.854Z,44.38
2023-07-01T00:22:38.332Z,44.36
2023-07-01T00:25:07.054Z,44.23
2023-07-01T00:27:35.127Z,43.90
2023-07-01T00:30:03.175Z,44.03
2023-07-01T00:32:31.320Z,44.05
2023-07-01T00:34:59.407Z,44.42
2023-07-01T00:37:28.913Z,44.22
2023-07-01T00:39:58.445Z,44.38
2023-07-01T00:42:26.515Z,44.34
2023-07-01T00:44:54.581Z,44.64
2023-07-01T00:47:22.642Z,44.70
2023-07-01T00:49:51.035Z,44.65
2023-07-01T00:52:19.303Z,45.02
2023-07-01T00:54:47.397Z,44.85
2023-07-01T00:57:17.099Z,44.83
2023-07-01T00:59:45.208Z,45.11
2023-07-01T01:02:20.330Z,45.37
2023-07-01T01:05:02.652Z,45.28
2023-07-01T01:07:35.652Z,44.87
2023-07-01T01:10:09.569Z,45.16
2023-07-01T01:12:43.103Z,44.67
2023-07-01T01:15:12.843Z,44.74
2023-07-01T01:17:43.808Z,45.08
2023-07-01T01:20:17.498Z,44.65
2023-07-01T01:22:55.428Z,44.72
2023-07-01T01:25:31.159Z,45.08
2023-07-01T01:28:01.604Z,45.12
2023-07-01T01:30:32.838Z,44.84
2023-07-01T01:33:01.314Z,45.26
2023-07-01T01:35:29.717Z,45.21
2023-07-01T01:38:02.650Z,45.34
2023-07-01T01:40:35.709Z,45.27
2023-07-01T01:43:10.976Z,44.72
2023-07-01T01:45:39.869Z,44.96
2023-07-01T01:48:08.633Z,44.78
2023-07-01T01:50:38.721Z,44.57
2023-07-01T01:53:07.994Z,44.75
2023-07-01T01:55:36.605Z,44.52
2023-07-01T01:58:06.187Z,44.40
2023-07-01T02:00:35.724Z,44.66
2023-07-01T02:03:04.164Z,44.33
2023-07-01T02:05:32.469Z,44.47
2023-07-01T02:08:03.397Z,44.57
2023-07-01T02:10:33.668Z,44.51
2023-07-01T02:13:02.156Z,44.70
2023-07-01T02:15:31.697Z,44.96
2023-07-01T02:18:00.282Z,44.94
2023-07-01T02:20:28.346Z,44.94
2023-07-01T02:22:56.407Z,44.75
2023-07-01T02:25:24.822Z,45.41
2023-07-01T02:27:52.940Z,45.59
2023-07-01T02:30:20.976Z,46.31
2023-07-01T02:32:50.737Z,47.06
2023-07-01T02:35:18.816Z,47.72
2023-07-01T02:37:47.293Z,47.81
2023-07-01T02:40:15.487Z,46.78
2023-07-01T02:42:43.652Z,46.51
2023-07-01T02:45:12.632Z,46.99
2023-07-01T02:47:40.763Z,46.51
2023-07-01T02:50:11.287Z,46.80
2023-07-01T02:52:39.387Z,47.73
2023-07-01T02:55:08.580Z,48.18
2023-07-01T02:57:36.749Z,49.11
2023-07-01T03:00:09.123Z,50.56
2023-07-01T03:02:37.317Z,51.11
2023-07-01T03:05:06.566Z,52.90
2023-07-01T03:07:36.053Z,53.62
2023-07-01T03:10:04.253Z,53.78
2023-07-01T03:12:32.372Z,54.42
2023-07-01T03:15:00.475Z,55.09
2023-07-01T03:17:28.667Z,56.33
2023-07-01T03:19:56.805Z,56.45
2023-07-01T03:22:25.073Z,55.68
2023-07-01T03:24:54.500Z,56.22
2023-07-01T03:27:22.559Z,56.19
2023-07-01T03:29:50.600Z,55.96
2023-07-01T03:32:18.636Z,56.29
2023-07-01T03:34:46.716Z,55.87
2023-07-01T03:37:14.736Z,56.28
2023-07-01T03:39:42.800Z,56.26
2023-07-01T03:42:12.229Z,56.03
2023-07-01T03:44:40.245Z,56.35
2023-07-01T03:47:08.347Z,56.36
2023-07-01T03:49:36.374Z,56.62
2023-07-01T03:52:05.099Z,56.44
2023-07-01T03:54:33.212Z,56.53
2023-07-01T03:57:01.225Z,56.73
2023-07-01T03:59:30.626Z,56.52
2023-07-01T04:01:58.711Z,56.35
2023-07-01T04:04:26.809Z,57.03
2023-07-01T04:06:55.988Z,56.75
2023-07-01T04:09:24.583Z,56.21
2023-07-01T04:11:53.341Z,55.89
2023-07-01T04:14:21.363Z,56.42
2023-07-01T04:16:52.031Z,55.97
2023-07-01T04:19:20.270Z,55.31
2023-07-01T04:21:48.298Z,55.99
2023-07-01T04:24:16.446Z,55.86
2023-07-01T04:26:45.213Z,55.69
2023-07-01T04:29:14.010Z,55.45
2023-07-01T04:31:42.188Z,55.62
2023-07-01T04:34:11.633Z,55.10
2023-07-01T04:36:39.669Z,55.27
2023-07-01T04:39:07.766Z,55.32
2023-07-01T04:41:35.885Z,55.77
2023-07-01T04:44:04.456Z,56.06
2023-07-01T04:46:33.638Z,55.71
2023-07-01T04:49:01.828Z,55.25
2023-07-01T04:51:31.400Z,55.74
2023-07-01T04:54:02.106Z,55.31
2023-07-01T04:56:30.219Z,55.49
2023-07-01T04:58:58.277Z,56.36
2023-07-01T05:01:26.507Z,55.79
2023-07-01T05:03:54.829Z,56.09
2023-07-01T05:06:22.988Z,57.02
2023-07-01T05:08:52.912Z,56.93
2023-07-01T05:11:20.991Z,57.15
2023-07-01T05:13:49.050Z,57.57
2023-07-01T05:16:17.198Z,57.20
2023-07-01T05:18:45.316Z,57.56
2023-07-01T05:21:13.340Z,57.84
2023-07-01T05:23:41.404Z,57.68
2023-07-01T05:26:10.896Z,57.93
2023-07-01T05:28:39.016Z,57.14
2023-07-01T05:31:07.040Z,57.30
2023-07-01T05:33:35.373Z,58.16
2023-07-01T05:36:03.560Z,58.26
2023-07-01T05:38:31.908Z,58.29
2023-07-01T05:41:00.256Z,57.43
2023-07-01T05:43:30.256Z,57.95
2023-07-01T05:45:58.624Z,58.31
2023-07-01T05:48:26.999Z,57.77
2023-07-01T05:50:55.268Z,57.18
2023-07-01T05:53:23.618Z,56.84
2023-07-01T05:55:52.129Z,57.23
2023-07-01T05:58:20.413Z,57.61
2023-07-01T06:00:51.454Z,57.20
2023-07-01T06:03:19.994Z,57.19
2023-07-01T06:05:48.365Z,56.99
2023-07-01T06:08:16.677Z,57.22
2023-07-01T06:10:45.262Z,57.42
2023-07-01T06:13:13.815Z,57.22
2023-07-01T06:15:42.103Z,57.62
2023-07-01T06:18:11.857Z,57.33
2023-07-01T06:20:40.321Z,57.66
2023-07-01T06:23:08.583Z,58.06
2023-07-01T06:25:36.956Z,57.82
2023-07-01T06:28:05.438Z,58.06
2023-07-01T06:30:33.743Z,58.18
2023-07-01T06:33:02.246Z,57.98
2023-07-01T06:35:32.038Z,58.15
2023-07-01T06:38:00.508Z,58.87
2023-07-01T06:40:28.932Z,57.86
2023-07-01T06:42:57.269Z,58.31
2023-07-01T06:45:25.586Z,58.59
2023-07-01T06:47:53.902Z,58.38
2023-07-01T06:50:22.245Z,58.29
2023-07-01T06:52:52.057Z,57.60
2023-07-01T06:55:20.693Z,58.20
2023-07-01T06:57:49.015Z,57.31
2023-07-01T07:00:17.613Z,56.93
2023-07-01T07:02:45.910Z,57.35
2023-07-01T07:05:14.264Z,57.14
2023-07-01T07:07:42.561Z,57.63
2023-07-01T07:10:12.723Z,57.47
2023-07-01T07:12:41.064Z,58.34
2023-07-01T07:15:10.401Z,57.29
2023-07-01T07:17:39.361Z,57.93
2023-07-01T07:20:09.271Z,57.69
2023-07-01T07:22:37.696Z,58.34
2023-07-01T07:25:06.509Z,58.19
2023-07-01T07:27:36.267Z,58.52
2023-07-01T07:30:05.831Z,58.45
2023-07-01T07:32:34.354Z,60.01
2023-07-01T07:35:02.647Z,59.86
2023-07-01T07:37:31.215Z,59.96
2023-07-01T07:40:00.690Z,60.28
2023-07-01T07:42:29.391Z,60.67
2023-07-01T07:44:59.089Z,60.40
2023-07-01T07:47:28.457Z,60.69
2023-07-01T07:49:56.943Z,61.10
2023-07-01T07:52:25.487Z,60.68
2023-07-01T07:54:53.895Z,61.86
2023-07-01T07:57:22.303Z,61.60
2023-07-01T07:59:50.632Z,60.76
2023-07-01T08:02:20.287Z,61.50
2023-07-01T08:04:48.648Z,61.42
2023-07-01T08:07:17.119Z,61.69
2023-07-01T08:09:45.420Z,60.97
2023-07-01T08:12:14.810Z,61.76
2023-07-01T08:14:43.204Z,61.21
2023-07-01T08:17:11.590Z,61.36
2023-07-01T08:19:41.339Z,61.68
2023-07-01T08:22:09.664Z,60.74
2023-07-01T08:24:37.988Z,61.51
2023-07-01T08:27:06.739Z,61.60
2023-07-01T08:29:35.045Z,61.37
2023-07-01T08:32:03.486Z,61.06
2023-07-01T08:34:31.752Z,61.25
2023-07-01T08:37:03.532Z,61.36
2023-07-01T08:39:31.991Z,61.17
2023-07-01T08:42:05.529Z,61.09
2023-07-01T08:44:34.072Z,61.12
2023-07-01T08:47:03.524Z,60.51
2023-07-01T08:49:32.074Z,60.71
2023-07-01T08:52:06.646Z,59.90
2023-07-01T08:54:36.293Z,60.31
2023-07-01T08:57:05.192Z,61.06
2023-07-01T08:59:34.265Z,60.83
2023-07-01T09:02:02.991Z,60.40
2023-07-01T09:04:32.168Z,60.53
2023-07-01T09:07:02.077Z,59.50
2023-07-01T09:09:30.411Z,60.51
2023-07-01T09:11:58.800Z,60.39
2023-07-01T09:14:27.106Z,60.38
2023-07-01T09:16:55.448Z,60.38
2023-07-01T09:19:24.425Z,59.90
2023-07-01T09:21:52.990Z,60.97
2023-07-01T09:24:39.996Z,59.48
2023-07-01T09:27:10.261Z,59.94
2023-07-01T09:29:41.721Z,60.10
2023-07-01T09:32:10.824Z,60.64
2023-07-01T09:34:57.177Z,59.85
2023-07-01T09:37:26.346Z,59.64
2023-07-01T09:39:57.574Z,59.28
2023-07-01T09:42:25.935Z,59.26
2023-07-01T09:45:10.142Z,60.14
2023-07-01T09:47:39.150Z,59.23
2023-07-01T09:50:09.056Z,59.07
2023-07-01T09:52:38.466Z,59.09
2023-07-01T09:55:09.883Z,59.75
2023-07-01T09:57:39.357Z,59.48
2023-07-01T10:00:10.880Z,59.49
2023-07-01T10:02:39.653Z,59.20
2023-07-01T10:05:08.551Z,59.04
2023-07-01T10:07:37.423Z,59.63
2023-07-01T10:10:08.157Z,59.40
2023-07-01T10:12:38.578Z,59.53
2023-07-01T10:15:12.208Z,60.01
2023-07-01T10:17:49.221Z,59.06
2023-07-01T10:20:28.660Z,59.54
2023-07-01T10:22:57.432Z,60.02
2023-07-01T10:25:36.833Z,60.53
2023-07-01T10:28:06.731Z,59.86
2023-07-01T10:31:13.304Z,59.74
2023-07-01T10:33:58.601Z,60.09
2023-07-01T10:36:27.615Z,60.28
2023-07-01T10:39:33.334Z,61.51
2023-07-01T10:42:03.138Z,60.82
2023-07-01T10:44:31.509Z,61.00
2023-07-01T10:47:18.630Z,60.82
2023-07-01T10:50:07.254Z,60.25
2023-07-01T10:52:51.052Z,59.25
2023-07-01T10:55:45.877Z,60.18
2023-07-01T10:58:24.737Z,59.28
2023-07-01T11:00:54.595Z,59.26
2023-07-01T11:03:55.429Z,58.67
2023-07-01T11:06:23.870Z,58.96
2023-07-01T11:08:53.450Z,58.46
2023-07-01T11:11:26.874Z,58.35
2023-07-01T11:14:14.709Z,58.29
2023-07-01T11:16:43.329Z,58.30
2023-07-01T11:19:16.739Z,58.32
2023-07-01T11:21:45.885Z,57.47
2023-07-01T11:24:15.274Z,57.25
2023-07-01T11:26:45.048Z,56.93
2023-07-01T11:29:19.752Z,56.46
2023-07-01T11:31:58.342Z,57.20
2023-07-01T11:34:27.131Z,56.74
2023-07-01T11:36:56.421Z,57.29
2023-07-01T11:39:24.988Z,57.72
2023-07-01T11:41:55.104Z,57.02
2023-07-01T11:44:26.423Z,57.19
2023-07-01T11:46:55.481Z,57.46
2023-07-01T11:49:26.232Z,57.33
2023-07-01T11:51:56.221Z,58.03
2023-07-01T11:54:26.873Z,57.97
2023-07-01T11:57:09.809Z,58.71
2023-07-01T11:59:39.800Z,59.06
2023-07-01T12:02:08.370Z,58.90
2023-07-01T12:04:37.521Z,58.74
2023-07-01T12:07:10.394Z,58.87
2023-07-01T12:09:39.521Z,58.64
2023-07-01T12:12:08.275Z,58.80
2023-07-01T12:14:36.845Z,58.27
2023-07-01T12:17:06.535Z,58.18
2023-07-01T12:19:34.809Z,58.62
2023-07-01T12:22:03.185Z,59.41
2023-07-01T12:24:32.712Z,59.35
2023-07-01T12:27:03.833Z,59.74
2023-07-01T12:29:31.997Z,59.58
2023-07-01T12:32:00.462Z,59.86
2023-07-01T12:34:30.977Z,59.71
2023-07-01T12:36:59.612Z,59.96
2023-07-01T12:39:27.996Z,60.32
2023-07-01T12:41:56.613Z,60.80
2023-07-01T12:44:24.761Z,60.51
2023-07-01T12:46:53.232Z,60.71
2023-07-01T12:49:22.473Z,60.73
2023-07-01T12:51:52.394Z,60.11
2023-07-01T12:54:20.746Z,60.19
2023-07-01T12:56:48.949Z,61.05
2023-07-01T12:59:17.145Z,62.51
2023-07-01T13:01:47.251Z,61.73
2023-07-01T13:04:20.943Z,60.89
2023-07-01T13:06:52.665Z,60.59
2023-07-01T13:09:42.616Z,60.62
2023-07-01T13:12:11.051Z,60.84
2023-07-01T13:14:39.254Z,61.22
2023-07-01T13:17:08.033Z,61.53
2023-07-01T13:19:36.655Z,61.41
2023-07-01T13:22:06.526Z,60.85
2023-07-01T13:24:41.036Z,60.86
2023-07-01T13:27:12.795Z,60.60
2023-07-01T13:29:41.222Z,60.47
2023-07-01T13:32:09.655Z,59.80
2023-07-01T13:34:42.621Z,59.35
2023-07-01T13:37:14.865Z,59.32
2023-07-01T13:39:44.679Z,58.99
2023-07-01T13:42:13.448Z,59.20
2023-07-01T13:44:41.985Z,59.28
2023-07-01T13:47:14.363Z,59.35
2023-07-01T13:49:42.928Z,59.69
2023-07-01T13:52:11.051Z,59.77
2023-07-01T13:54:41.357Z,59.47
2023-07-01T13:57:22.502Z,58.84
2023-07-01T13:59:50.557Z,58.73
2023-07-01T14:02:18.727Z,58.27
2023-07-01T14:04:48.173Z,58.61
2023-07-01T14:07:18.274Z,58.41
2023-07-01T14:09:49.416Z,58.41
2023-07-01T14:12:19.528Z,58.70
2023-07-01T14:14:48.188Z,58.06
2023-07-01T14:17:19.657Z,57.32
2023-07-01T14:19:54.871Z,57.51
2023-07-01T14:22:23.017Z,57.69
2023-07-01T14:24:52.873Z,57.48
2023-07-01T14:27:28.128Z,56.97
2023-07-01T14:29:56.202Z,57.18
2023-07-01T14:32:24.361Z,58.22
2023-07-01T14:34:52.453Z,57.81
2023-07-01T14:37:20.485Z,57.41
2023-07-01T14:39:54.714Z,57.45
2023-07-01T14:42:27.035Z,57.12
2023-07-01T14:44:55.302Z,58.29
2023-07-01T14:47:23.482Z,57.55
2023-07-01T14:49:51.609Z,55.87
2023-07-01T14:52:20.878Z,55.41
2023-07-01T14:54:50.640Z,54.10
2023-07-01T14:57:21.515Z,53.74
2023-07-01T14:59:51.107Z,52.91
2023-07-01T15:02:19.733Z,52.59
2023-07-01T15:04:48.103Z,52.07
2023-07-01T15:07:16.185Z,52.46
2023-07-01T15:09:44.215Z,52.56
2023-07-01T15:12:12.292Z,53.34
2023-07-01T15:14:40.338Z,52.72
2023-07-01T15:17:09.894Z,52.24
2023-07-01T15:19:38.176Z,51.27
2023-07-01T15:22:06.919Z,50.43
2023-07-01T15:24:35.004Z,50.28
2023-07-01T15:27:03.527Z,50.04
2023-07-01T15:29:31.621Z,50.02
2023-07-01T15:31:59.709Z,50.92
2023-07-01T15:34:29.360Z,50.96
2023-07-01T15:36:57.548Z,51.12
2023-07-01T15:39:25.830Z,50.98
2023-07-01T15:41:53.957Z,50.57
2023-07-01T15:44:22.043Z,51.05
2023-07-01T15:46:50.116Z,50.80
2023-07-01T15:49:18.401Z,50.63
2023-07-01T15:51:47.865Z,51.27
2023-07-01T15:54:15.907Z,51.08
2023-07-01T15:56:43.980Z,51.75
2023-07-01T15:59:12.149Z,51.13
2023-07-01T16:01:40.259Z,51.14
2023-07-01T16:04:08.527Z,51.29
2023-07-01T16:06:37.407Z,51.04
2023-07-01T16:09:50.418Z,52.05
2023-07-01T16:12:30.829Z,51.98
2023-07-01T16:15:03.022Z,51.36
2023-07-01T16:17:32.207Z,51.17
2023-07-01T16:20:00.389Z,51.33
2023-07-01T16:22:28.611Z,51.19
2023-07-01T16:25:00.294Z,51.23
2023-07-01T16:27:28.557Z,50.60
2023-07-01T16:30:02.017Z,50.41
2023-07-01T16:32:32.186Z,50.39
2023-07-01T16:35:02.366Z,50.37
2023-07-01T16:37:30.915Z,49.40
2023-07-01T16:40:00.787Z,49.16
2023-07-01T16:42:37.880Z,48.57
2023-07-01T16:45:11.069Z,49.02
2023-07-01T16:47:39.202Z,48.66
2023-07-01T16:50:17.255Z,47.52
2023-07-01T16:52:45.435Z,48.82
2023-07-01T16:55:37.658Z,47.78
2023-07-01T16:58:05.755Z,47.40
2023-07-01T17:00:33.947Z,47.78
2023-07-01T17:03:17.017Z,47.47
2023-07-01T17:05:45.361Z,47.06
2023-07-01T17:08:22.178Z,47.27
2023-07-01T17:10:51.986Z,47.34
2023-07-01T17:13:40.084Z,46.93
2023-07-01T17:16:09.166Z,46.73
2023-07-01T17:18:37.796Z,46.27
2023-07-01T17:21:05.998Z,46.34
2023-07-01T17:23:34.082Z,45.85
2023-07-01T17:26:03.467Z,45.28
2023-07-01T17:28:31.552Z,45.68
2023-07-01T17:30:59.669Z,45.81
2023-07-01T17:33:27.814Z,45.67
2023-07-01T17:35:55.829Z,44.96
2023-07-01T17:38:23.905Z,45.26
2023-07-01T17:40:51.921Z,45.63
2023-07-01T17:43:21.339Z,45.59
2023-07-01T17:45:49.600Z,46.47
2023-07-01T17:48:17.914Z,46.63
2023-07-01T17:50:45.951Z,46.89
2023-07-01T17:53:13.963Z,46.99
2023-07-01T17:55:42.011Z,47.64
2023-07-01T17:58:10.052Z,47.30
2023-07-01T18:00:39.498Z,47.65
2023-07-01T18:03:07.618Z,48.50
2023-07-01T18:05:35.763Z,48.31
2023-07-01T18:08:03.871Z,48.95
2023-07-01T18:10:31.933Z,48.66
2023-07-01T18:12:59.980Z,48.70
2023-07-01T18:15:28.032Z,49.09
2023-07-01T18:17:57.504Z,48.97
2023-07-01T18:20:25.599Z,48.56
2023-07-01T18:22:53.660Z,47.54
2023-07-01T18:25:21.758Z,47.57
2023-07-01T18:27:49.779Z,47.31
2023-07-01T18:30:18.284Z,47.18
2023-07-01T18:32:46.597Z,46.81
2023-07-01T18:35:16.940Z,46.96
2023-07-01T18:37:46.981Z,46.87
2023-07-01T18:40:16.048Z,47.09
2023-07-01T18:42:44.416Z,47.45
2023-07-01T18:45:13.553Z,47.60
2023-07-01T18:47:43.511Z,47.57
2023-07-01T18:50:12.490Z,48.35
2023-07-01T18:52:42.688Z,47.99
2023-07-01T18:55:11.290Z,48.16
2023-07-01T18:57:39.583Z,48.13
2023-07-01T19:00:09.382Z,48.27
2023-07-01T19:02:37.631Z,48.45
2023-07-01T19:05:06.660Z,48.59
2023-07-01T19:07:34.730Z,48.69
2023-07-01T19:10:05.516Z,49.49
2023-07-01T19:12:33.732Z,48.82
2023-07-01T19:15:01.924Z,49.06
2023-07-01T19:17:30.162Z,49.19
2023-07-01T19:19:58.340Z,49.09
2023-07-01T19:22:29.366Z,49.98
2023-07-01T19:24:57.774Z,50.27
2023-07-01T19:27:30.423Z,50.44
2023-07-01T19:30:12.589Z,50.17
2023-07-01T19:32:42.115Z,49.90
2023-07-01T19:35:11.085Z,50.18
2023-07-01T19:37:39.673Z,50.01
2023-07-01T19:40:08.787Z,50.05
2023-07-01T19:42:38.576Z,49.81
2023-07-01T19:45:07.830Z,50.36
2023-07-01T19:47:39.947Z,50.16
2023-07-01T19:50:09.383Z,50.27
2023-07-01T19:52:37.842Z,50.11
2023-07-01T19:55:07.188Z,50.34
2023-07-01T19:57:35.428Z,50.18
2023-07-01T20:00:08.777Z,49.68
2023-07-01T20:02:38.185Z,50.16
2023-07-01T20:05:07.099Z,49.80
2023-07-01T20:07:36.125Z,49.79
2023-07-01T20:10:09.773Z,49.81
2023-07-01T20:12:48.606Z,49.80
2023-07-01T20:15:18.221Z,49.38
2023-07-01T20:17:46.353Z,49.38
2023-07-01T20:20:14.442Z,49.33
2023-07-01T20:22:42.483Z,49.73
2023-07-01T20:25:10.954Z,49.91
2023-07-01T20:27:38.993Z,49.93
2023-07-01T20:30:08.912Z,49.75
2023-07-01T20:32:38.797Z,50.13
2023-07-01T20:35:07.955Z,49.26
2023-07-01T20:37:36.053Z,49.92
2023-07-01T20:40:04.946Z,49.59
2023-07-01T20:42:33.280Z,49.63
2023-07-01T20:45:01.330Z,50.05
2023-07-01T20:47:29.448Z,49.91
2023-07-01T20:49:59.569Z,49.87
2023-07-01T20:52:27.848Z,50.00
2023-07-01T20:54:56.008Z,50.14
2023-07-01T20:57:24.042Z,50.20
2023-07-01T20:59:52.095Z,49.75
2023-07-01T21:02:20.228Z,49.69
2023-07-01T21:04:48.332Z,49.90
2023-07-01T21:07:19.150Z,49.56
2023-07-01T21:09:47.255Z,49.69
2023-07-01T21:12:15.256Z,49.77
2023-07-01T21:14:43.355Z,49.85
2023-07-01T21:17:11.446Z,49.92
2023-07-01T21:19:39.597Z,50.12
2023-07-01T21:22:07.724Z,50.01
2023-07-01T21:24:37.173Z,49.77
2023-07-01T21:27:05.716Z,49.98
2023-07-01T21:29:33.760Z,49.97
2023-07-01T21:32:01.839Z,50.11
2023-07-01T21:34:31.775Z,49.98
2023-07-01T21:36:59.893Z,50.02
2023-07-01T21:39:28.472Z,50.25
2023-07-01T21:41:57.882Z,50.11
2023-07-01T21:44:25.916Z,50.25
2023-07-01T21:46:54.091Z,50.37
2023-07-01T21:49:22.611Z,49.98
2023-07-01T21:51:50.841Z,50.21
2023-07-01T21:54:21.089Z,50.01
2023-07-01T21:56:50.335Z,50.25
2023-07-01T21:59:20.076Z,50.24
2023-07-01T22:01:48.340Z,50.21
2023-07-01T22:04:16.624Z,50.34
2023-07-01T22:06:46.879Z,50.86
2023-07-01T22:09:16.170Z,50.52
2023-07-01T22:11:44.344Z,50.79
2023-07-01T22:14:13.187Z,50.98
2023-07-01T22:16:42.888Z,51.11
2023-07-01T22:19:11.009Z,50.95
2023-07-01T22:21:40.833Z,50.92
2023-07-01T22:24:09.385Z,51.06
2023-07-01T22:26:37.410Z,50.93
2023-07-01T22:29:05.623Z,50.91
2023-07-01T22:31:33.765Z,51.62
2023-07-01T22:34:03.243Z,51.64
2023-07-01T22:36:31.294Z,51.75
2023-07-01T22:38:59.293Z,51.91
2023-07-01T22:41:27.379Z,51.98
2023-07-01T22:43:55.467Z,51.91
2023-07-01T22:46:23.789Z,51.35
2023-07-01T22:48:51.986Z,51.54
2023-07-01T22:51:21.393Z,51.43
2023-07-01T22:53:49.492Z,51.08
2023-07-01T22:56:17.664Z,51.41
2023-07-01T22:58:45.744Z,51.50
2023-07-01T23:01:13.776Z,51.53
2023-07-01T23:03:41.987Z,51.80
2023-07-01T23:06:10.252Z,51.91
2023-07-01T23:08:39.692Z,51.87
2023-07-01T23:11:07.829Z,52.80
2023-07-01T23:13:35.886Z,52.57
2023-07-01T23:16:04.097Z,52.61
2023-07-01T23:18:32.242Z,52.98
2023-07-01T23:21:00.371Z,53.12
2023-07-01T23:23:28.462Z,53.10
2023-07-01T23:25:57.903Z,52.61
2023-07-01T23:28:25.944Z,52.56
2023-07-01T23:30:54.254Z,52.78
2023-07-01T23:33:22.900Z,53.05
2023-07-01T23:35:51.038Z,52.59
2023-07-01T23:38:19.093Z,52.81
2023-07-01T23:40:47.384Z,52.60
2023-07-01T23:43:16.924Z,51.90
2023-07-01T23:45:44.955Z,52.29
2023-07-01T23:48:12.972Z,52.43
2023-07-01T23:50:41.865Z,51.94
2023-07-01T23:53:10.190Z,51.77
2023-07-01T23:55:38.509Z,51.73
2023-07-01T23:58:06.838Z,51.91
